Terminal Aerodrome Forecast
Issued by NWS

Home | Current Version | Previous Version | Text Only | Print | Product List | Glossary On
Versions: 1 2 3 4 5 6 7 8 9 10 11 12 13 14 15 16
000
FTUS44 KCRP 261734
TAFALI
TAF
KALI 261734Z 2618/2718 03007KT P6SM VCSH BKN025 OVC080
      TEMPO 2618/2621 5SM SHRA BKN020
     FM262100 02008KT P6SM VCTS BKN040CB BKN120
      TEMPO 2621/2701 5SM TSRA BR OVC030CB
     FM270300 02006KT P6SM VCSH SCT025 OVC120
     FM270700 01011KT P6SM OVC015
     FM271400 01012KT P6SM OVC020=

USA.gov is the U.S. government's official web portal to all federal, state and local government web resources and services.